Time;durP1;ratioP1;P1;durP2;ratioP2;P2;SDS_P1;SDS_P2;PMS_P1;PMS_P2;Temp;Humidity;BMP_temperature;BMP_pressure;BME280_temperature;BME280_humidity;BME280_pressure;Samples;Min_cycle;Max_cycle;Signal;HPM_P1;HPM_P2
2022/06/12 00:00:33;;;;;;;;;;;;;;;23.91;49.66;100153.97;4346371;32;20313;-88
2022/06/12 00:03:01;;;;;;;;;;;;;;;23.82;50.15;100146.34;4343579;32;20043;-88
2022/06/12 00:05:30;;;;;;;;;;;;;;;23.83;49.88;100142.78;4370304;32;20315;-88
2022/06/12 00:07:56;;;;;;;;;;;;;;;23.61;50.96;100147.88;4363091;32;19988;-88
2022/06/12 00:10:24;;;;;;;;;;;;;;;23.63;51.01;100148.72;4363710;32;20018;-88
2022/06/12 00:12:51;;;;;;;;;;;;;;;23.55;51.30;100148.97;4340171;32;20741;-88
2022/06/12 00:15:19;;;;;;;;;;;;;;;23.64;50.59;100145.16;4341620;32;19991;-88
2022/06/12 00:17:47;;;;;;;;;;;;;;;23.57;51.08;100141.84;4346457;32;19998;-88
2022/06/12 00:20:15;;;;;;;;;;;;;;;23.64;50.87;100142.50;4340902;32;19988;-88
2022/06/12 00:22:43;;;;;;;;;;;;;;;23.62;50.82;100132.00;4340287;32;20031;-88
2022/06/12 00:25:12;;;;;;;;;;;;;;;23.71;50.16;100129.97;4341552;32;19991;-88
2022/06/12 00:27:39;;;;;;;;;;;;;;;23.64;50.12;100127.53;4369707;32;20002;-88
2022/06/12 00:30:08;;;;;;;;;;;;;;;23.54;50.77;100131.38;4370309;32;20596;-88
2022/06/12 00:32:35;;;;;;;;;;;;;;;23.64;50.99;100126.66;4363320;32;19998;-88
2022/06/12 00:35:02;;;;;;;;;;;;;;;23.41;51.97;100124.75;4340091;32;20071;-88
2022/06/12 00:37:29;;;;;;;;;;;;;;;23.49;51.19;100122.75;4341760;32;19997;-88
2022/06/12 00:39:56;;;;;;;;;;;;;;;23.58;50.24;100122.44;4346669;32;20023;-87
2022/06/12 00:42:25;;;;;;;;;;;;;;;23.51;50.69;100126.19;4367710;32;20014;-88
2022/06/12 00:44:52;;;;;;;;;;;;;;;23.39;51.70;100121.31;4348540;32;20388;-90
2022/06/12 00:47:19;;;;;;;;;;;;;;;23.38;51.43;100124.84;4342149;32;20322;-88
2022/06/12 00:49:51;;;;;;;;;;;;;;;23.43;51.07;100122.94;4341749;32;19975;-88
2022/06/12 00:52:17;;;;;;;;;;;;;;;23.18;52.71;100123.72;4371751;32;19997;-88
2022/06/12 00:54:46;;;;;;;;;;;;;;;23.37;51.67;100121.34;4343044;32;19979;-88
2022/06/12 00:57:13;;;;;;;;;;;;;;;23.43;50.74;100128.22;4366026;32;19995;-87
2022/06/12 00:59:42;;;;;;;;;;;;;;;23.40;50.67;100130.97;4364964;32;20368;-87
2022/06/12 01:02:10;;;;;;;;;;;;;;;23.37;51.30;100123.13;4343620;32;20030;-87
2022/06/12 01:07:25;;;;;;;;;;;;;;;23.26;51.59;100119.94;4341636;32;20042;-87
2022/06/12 01:09:52;;;;;;;;;;;;;;;23.35;50.78;100122.31;4342344;33;19992;-87
2022/06/12 01:12:20;;;;;;;;;;;;;;;23.39;50.17;100116.03;4368152;32;20013;-87
2022/06/12 01:14:49;;;;;;;;;;;;;;;23.39;48.50;100110.75;4369541;32;20035;-88
2022/06/12 01:17:16;;;;;;;;;;;;;;;23.37;49.32;100117.84;4341841;32;20001;-87
2022/06/12 01:19:44;;;;;;;;;;;;;;;23.40;48.93;100113.34;4368191;32;19987;-88
2022/06/12 01:22:30;;;;;;;;;;;;;;;23.32;49.43;100115.34;4379740;32;19983;-88
2022/06/12 01:25:13;;;;;;;;;;;;;;;23.41;48.35;100108.91;4354933;32;19997;-87
2022/06/12 01:27:40;;;;;;;;;;;;;;;23.51;47.98;100110.31;4331808;32;20033;-88
2022/06/12 01:30:25;;;;;;;;;;;;;;;23.53;49.34;100112.94;4347931;32;20051;-88
2022/06/12 01:33:00;;;;;;;;;;;;;;;23.43;49.50;100113.22;4341422;32;19994;-88
2022/06/12 01:35:27;;;;;;;;;;;;;;;23.49;47.65;100112.19;4364548;32;20006;-88
2022/06/12 01:38:07;;;;;;;;;;;;;;;23.41;47.04;100114.19;4341617;32;20322;-88
2022/06/12 01:40:36;;;;;;;;;;;;;;;23.43;46.97;100112.38;4372309;32;20006;-88
2022/06/12 01:43:03;;;;;;;;;;;;;;;23.44;48.14;100111.44;4340399;32;20064;-88
2022/06/12 01:45:35;;;;;;;;;;;;;;;23.47;48.74;100108.72;4341307;33;19991;-87
2022/06/12 01:48:07;;;;;;;;;;;;;;;23.27;49.46;100100.56;4341375;32;20029;-88
2022/06/12 01:50:37;;;;;;;;;;;;;;;23.11;49.28;100100.19;4341203;32;19964;-88
2022/06/12 01:53:34;;;;;;;;;;;;;;;23.15;48.80;100101.81;4341441;33;20058;-87
2022/06/12 01:56:01;;;;;;;;;;;;;;;23.29;48.11;100102.22;4313489;32;20007;-89
2022/06/12 01:58:45;;;;;;;;;;;;;;;23.31;47.92;100103.06;4184794;32;5088510;-87
2022/06/12 02:01:39;;;;;;;;;;;;;;;23.27;48.13;100105.84;4366998;32;20038;-88
2022/06/12 02:04:09;;;;;;;;;;;;;;;23.33;47.21;100100.38;4349592;32;20107;-88
2022/06/12 02:06:41;;;;;;;;;;;;;;;23.29;47.61;100101.37;4348048;32;20435;-88
2022/06/12 02:09:11;;;;;;;;;;;;;;;23.42;48.02;100105.34;4355532;32;20045;-88
2022/06/12 02:14:31;;;;;;;;;;;;;;;23.48;47.37;100099.00;4323115;33;19984;-86
2022/06/12 02:16:58;;;;;;;;;;;;;;;23.40;48.40;100096.62;4320522;33;19989;-87
2022/06/12 02:19:26;;;;;;;;;;;;;;;23.42;48.58;100100.06;4297366;33;19984;-86
2022/06/12 02:21:55;;;;;;;;;;;;;;;23.35;48.58;100099.38;4331099;32;19975;-87
2022/06/12 02:24:32;;;;;;;;;;;;;;;23.29;48.00;100104.87;4364345;32;19983;-87
2022/06/12 02:27:00;;;;;;;;;;;;;;;23.32;47.79;100104.78;4370903;32;20325;-88
2022/06/12 02:29:30;;;;;;;;;;;;;;;23.34;47.24;100107.38;4356078;32;20325;-89
2022/06/12 02:31:57;;;;;;;;;;;;;;;23.28;47.42;100107.56;4376989;32;19983;-88
2022/06/12 02:34:25;;;;;;;;;;;;;;;23.40;47.26;100104.53;4355761;32;19979;-86
2022/06/12 02:36:54;;;;;;;;;;;;;;;23.39;46.65;100105.47;4355049;32;20452;-87
2022/06/12 02:39:22;;;;;;;;;;;;;;;23.27;47.58;100105.84;4370932;32;20288;-87
2022/06/12 02:41:55;;;;;;;;;;;;;;;23.40;47.60;100107.19;4363864;32;19994;-87
2022/06/12 02:44:24;;;;;;;;;;;;;;;23.34;47.72;100108.25;4366322;32;19979;-88
2022/06/12 02:46:56;;;;;;;;;;;;;;;23.33;48.33;100103.03;4370756;32;20278;-88
2022/06/12 02:49:23;;;;;;;;;;;;;;;23.29;48.38;100101.37;4352082;32;19987;-88
2022/06/12 02:52:09;;;;;;;;;;;;;;;23.25;48.71;100112.97;4365055;32;20006;-88
2022/06/12 02:54:36;;;;;;;;;;;;;;;23.21;48.48;100112.19;4341230;33;19976;-88
2022/06/12 02:57:02;;;;;;;;;;;;;;;23.17;49.15;100110.56;4340691;32;20035;-88
2022/06/12 02:59:39;;;;;;;;;;;;;;;22.99;49.26;100117.28;4341088;33;19984;-87
2022/06/12 03:02:06;;;;;;;;;;;;;;;23.09;48.88;100110.78;4372181;32;19998;-87
2022/06/12 03:04:39;;;;;;;;;;;;;;;23.12;48.95;100113.34;4347183;32;19998;-87
2022/06/12 03:07:06;;;;;;;;;;;;;;;23.11;48.69;100116.03;4364072;32;20347;-87
2022/06/12 03:09:33;;;;;;;;;;;;;;;23.02;48.46;100116.31;4367724;32;20411;-87
2022/06/12 03:11:59;;;;;;;;;;;;;;;22.83;49.78;100121.25;4348984;32;20046;-88
2022/06/12 03:14:26;;;;;;;;;;;;;;;22.77;49.59;100118.78;4374237;32;19991;-87
2022/06/12 03:16:53;;;;;;;;;;;;;;;22.88;47.52;100119.34;4346722;32;19988;-88
2022/06/12 03:19:21;;;;;;;;;;;;;;;22.73;48.29;100121.53;4363636;32;20318;-89
2022/06/12 03:21:51;;;;;;;;;;;;;;;22.72;48.57;100124.22;4347970;32;20038;-88
2022/06/12 03:24:34;;;;;;;;;;;;;;;22.56;48.87;100123.81;4341215;32;19980;-88
2022/06/12 03:27:17;;;;;;;;;;;;;;;22.55;49.03;100127.31;4346697;32;20010;-87
2022/06/12 03:29:47;;;;;;;;;;;;;;;22.65;47.65;100128.78;4374452;32;19983;-88
2022/06/12 03:32:14;;;;;;;;;;;;;;;22.60;48.05;100125.44;4332860;32;19989;-88
2022/06/12 03:34:47;;;;;;;;;;;;;;;22.61;48.51;100121.87;4356612;32;20002;-89
2022/06/12 03:37:17;;;;;;;;;;;;;;;22.62;48.10;100128.91;4340998;33;19998;-88
2022/06/12 03:39:45;;;;;;;;;;;;;;;22.65;48.28;100134.06;4366181;32;20011;-88
2022/06/12 03:42:15;;;;;;;;;;;;;;;22.74;47.44;100131.16;4369463;32;20335;-88
2022/06/12 03:44:46;;;;;;;;;;;;;;;22.69;48.24;100133.09;4363678;32;20452;-88
2022/06/12 03:47:15;;;;;;;;;;;;;;;22.63;48.38;100135.91;4346486;32;19987;-89
2022/06/12 03:49:52;;;;;;;;;;;;;;;22.70;48.75;100132.16;4365779;32;20735;-88
2022/06/12 03:52:28;;;;;;;;;;;;;;;22.68;49.30;100133.97;4363371;32;19979;-87
2022/06/12 03:55:05;;;;;;;;;;;;;;;22.63;49.72;100130.62;4340543;33;19976;-88
2022/06/12 03:57:52;;;;;;;;;;;;;;;22.65;50.12;100134.06;4371775;32;20165;-89
2022/06/12 04:00:23;;;;;;;;;;;;;;;22.65;50.14;100134.06;4359941;32;19998;-87
2022/06/12 04:02:55;;;;;;;;;;;;;;;22.69;49.74;100141.00;4339939;33;19983;-88
2022/06/12 04:05:27;;;;;;;;;;;;;;;22.78;49.03;100142.50;4357060;32;19983;-88
2022/06/12 04:07:54;;;;;;;;;;;;;;;22.78;48.69;100139.00;4372469;32;20062;-87
2022/06/12 04:10:23;;;;;;;;;;;;;;;22.79;48.60;100144.25;4377673;32;19988;-88
2022/06/12 04:12:50;;;;;;;;;;;;;;;22.82;48.49;100141.50;4370065;32;20003;-87
2022/06/12 04:15:19;;;;;;;;;;;;;;;22.89;49.81;100137.78;4367213;32;19987;-88
2022/06/12 04:17:45;;;;;;;;;;;;;;;22.91;50.44;100145.63;4368568;32;20006;-88
2022/06/12 04:20:14;;;;;;;;;;;;;;;22.92;49.99;100147.38;4365415;32;20364;-88
2022/06/12 04:22:46;;;;;;;;;;;;;;;23.00;48.95;100142.75;4365342;32;20643;-88
2022/06/12 04:25:22;;;;;;;;;;;;;;;22.94;49.24;100146.47;4374083;32;19995;-88
2022/06/12 04:27:49;;;;;;;;;;;;;;;22.69;49.70;100146.28;4348711;32;19987;-87
2022/06/12 04:30:27;;;;;;;;;;;;;;;22.71;49.00;100149.72;4335294;32;19984;-87
2022/06/12 04:32:59;;;;;;;;;;;;;;;22.88;49.51;100145.75;4341893;32;20366;-87
2022/06/12 04:35:26;;;;;;;;;;;;;;;22.93;48.93;100149.09;4363221;32;20396;-86
2022/06/12 04:37:53;;;;;;;;;;;;;;;23.07;48.90;100151.34;4349361;32;19995;-86
2022/06/12 04:40:24;;;;;;;;;;;;;;;22.98;47.99;100153.38;4344001;32;19980;-87
2022/06/12 04:42:53;;;;;;;;;;;;;;;23.00;47.91;100147.16;4356311;32;20238;-85
2022/06/12 04:45:20;;;;;;;;;;;;;;;22.96;47.06;100154.31;4349235;32;19983;-85
2022/06/12 04:47:47;;;;;;;;;;;;;;;22.99;47.90;100154.22;4348827;32;19984;-86
2022/06/12 04:50:14;;;;;;;;;;;;;;;23.14;47.08;100159.06;4346926;32;20005;-87
2022/06/12 04:52:42;;;;;;;;;;;;;;;23.16;47.41;100162.50;4378967;32;19971;-85
2022/06/12 04:55:09;;;;;;;;;;;;;;;23.25;46.75;100155.22;4354718;32;19983;-86
2022/06/12 04:57:35;;;;;;;;;;;;;;;23.16;47.88;100157.22;4348535;32;19980;-87
2022/06/12 05:00:03;;;;;;;;;;;;;;;23.16;46.78;100151.94;4340387;33;19994;-86
2022/06/12 05:02:30;;;;;;;;;;;;;;;23.24;46.10;100150.84;4343238;32;20653;-90
2022/06/12 05:04:57;;;;;;;;;;;;;;;23.23;46.28;100160.56;4362125;32;20435;-92
2022/06/12 05:07:24;;;;;;;;;;;;;;;23.31;46.19;100144.47;4351274;32;19986;-89
2022/06/12 05:09:51;;;;;;;;;;;;;;;23.24;46.79;100158.78;4345620;32;20410;-88
2022/06/12 05:12:18;;;;;;;;;;;;;;;23.27;46.63;100153.41;4348095;32;19980;-87
2022/06/12 05:14:45;;;;;;;;;;;;;;;23.18;46.77;100165.09;4342891;32;19975;-85
2022/06/12 05:17:17;;;;;;;;;;;;;;;23.35;45.86;100156.66;4348109;32;20001;-86
2022/06/12 05:19:44;;;;;;;;;;;;;;;23.32;46.12;100152.31;4343220;32;20034;-85
2022/06/12 05:22:12;;;;;;;;;;;;;;;23.13;47.03;100162.63;4364760;32;19983;-87
2022/06/12 05:24:45;;;;;;;;;;;;;;;23.27;46.25;100158.69;4348115;32;19978;-83
2022/06/12 05:27:14;;;;;;;;;;;;;;;23.44;46.12;100167.78;4359138;32;19983;-83
2022/06/12 05:29:41;;;;;;;;;;;;;;;23.36;46.48;100163.69;4374992;32;19991;-85
2022/06/12 05:32:09;;;;;;;;;;;;;;;23.42;46.25;100168.75;4347634;32;20000;-83
2022/06/12 05:34:37;;;;;;;;;;;;;;;23.55;45.79;100174.53;4341548;32;20007;-82
2022/06/12 05:37:04;;;;;;;;;;;;;;;23.44;46.62;100173.06;4342007;32;19988;-85
2022/06/12 05:39:31;;;;;;;;;;;;;;;23.48;46.88;100179.13;4373395;32;20003;-85
2022/06/12 05:41:58;;;;;;;;;;;;;;;23.46;46.37;100178.34;4364653;32;19980;-82
2022/06/12 05:44:24;;;;;;;;;;;;;;;23.61;46.16;100177.84;4342071;32;19988;-82
2022/06/12 05:46:55;;;;;;;;;;;;;;;23.66;46.72;100178.53;4364384;32;19975;-82
2022/06/12 05:49:23;;;;;;;;;;;;;;;23.67;46.48;100168.84;4365201;32;19971;-82
2022/06/12 05:51:50;;;;;;;;;;;;;;;23.68;47.23;100175.87;4345899;32;20332;-81
2022/06/12 05:54:17;;;;;;;;;;;;;;;23.62;46.59;100179.56;4344893;32;19987;-81
2022/06/12 05:56:45;;;;;;;;;;;;;;;23.64;47.34;100180.41;4362603;32;19991;-81
2022/06/12 05:59:12;;;;;;;;;;;;;;;23.72;47.34;100181.94;4371249;32;20368;-81
2022/06/12 06:01:42;;;;;;;;;;;;;;;23.87;46.67;100178.81;4370643;32;19975;-84
2022/06/12 06:04:09;;;;;;;;;;;;;;;23.88;46.20;100183.16;4341522;33;19983;-84
2022/06/12 06:06:38;;;;;;;;;;;;;;;23.90;47.50;100186.63;4341708;33;19991;-85
2022/06/12 06:09:05;;;;;;;;;;;;;;;24.15;45.64;100186.66;4369566;32;20058;-88
2022/06/12 06:11:32;;;;;;;;;;;;;;;24.12;46.02;100190.28;4376645;32;19993;-87
2022/06/12 06:13:59;;;;;;;;;;;;;;;24.48;44.71;100184.66;4356348;32;19991;-88
2022/06/12 06:16:25;;;;;;;;;;;;;;;24.63;45.19;100187.66;4351598;32;19993;-86
2022/06/12 06:18:56;;;;;;;;;;;;;;;25.05;44.48;100186.06;4351197;32;19983;-87
2022/06/12 06:21:22;;;;;;;;;;;;;;;25.42;43.05;100182.00;4355459;32;20014;-87
2022/06/12 06:23:49;;;;;;;;;;;;;;;25.40;42.05;100186.53;4348841;32;19987;-88
2022/06/12 06:26:17;;;;;;;;;;;;;;;25.50;43.14;100182.59;4366599;32;20515;-89
2022/06/12 06:28:45;;;;;;;;;;;;;;;26.05;39.77;100178.63;4367884;32;20051;-89
2022/06/12 06:31:11;;;;;;;;;;;;;;;26.38;40.35;100187.75;4339736;32;20325;-89
2022/06/12 06:33:38;;;;;;;;;;;;;;;26.74;37.38;100183.56;4343629;32;19984;-92
2022/06/12 06:36:08;;;;;;;;;;;;;;;26.71;38.30;100189.03;4354447;32;19993;-91
2022/06/12 06:38:35;;;;;;;;;;;;;;;27.13;37.75;100183.53;4346328;32;19983;-92
2022/06/12 06:41:02;;;;;;;;;;;;;;;27.22;37.60;100191.12;4354200;32;19994;-92
2022/06/12 06:43:30;;;;;;;;;;;;;;;27.33;37.83;100183.50;4349718;32;20010;-90
2022/06/12 06:46:15;;;;;;;;;;;;;;;27.30;35.87;100185.44;4346615;32;20664;-90
2022/06/12 06:48:43;;;;;;;;;;;;;;;27.65;36.54;100178.41;4353819;32;19995;-90
2022/06/12 06:51:10;;;;;;;;;;;;;;;27.85;36.53;100184.56;4335077;32;20030;-88
2022/06/12 06:53:37;;;;;;;;;;;;;;;28.31;34.34;100182.25;4350144;32;19976;-88
2022/06/12 06:56:04;;;;;;;;;;;;;;;28.11;35.99;100186.78;4354187;32;20022;-87
2022/06/12 06:58:31;;;;;;;;;;;;;;;28.26;36.72;100185.97;4355799;32;20055;-88
2022/06/12 07:00:58;;;;;;;;;;;;;;;28.43;36.62;100192.25;4355855;32;19989;-86
2022/06/12 07:03:25;;;;;;;;;;;;;;;28.58;33.34;100186.13;4363771;32;19986;-86
2022/06/12 07:05:52;;;;;;;;;;;;;;;28.52;35.66;100189.13;4355599;32;20013;-87
2022/06/12 07:08:19;;;;;;;;;;;;;;;28.99;33.64;100191.03;4374550;32;20029;-88
2022/06/12 07:10:47;;;;;;;;;;;;;;;28.83;34.32;100180.34;4353239;32;19983;-87
2022/06/12 07:13:13;;;;;;;;;;;;;;;28.83;34.23;100179.50;4357145;32;19994;-87
2022/06/12 07:15:41;;;;;;;;;;;;;;;29.30;33.68;100184.06;4361627;32;19997;-87
2022/06/12 07:18:08;;;;;;;;;;;;;;;28.91;33.64;100183.47;4344536;32;19995;-86
2022/06/12 07:20:37;;;;;;;;;;;;;;;29.11;33.14;100190.41;4347513;32;20022;-87
2022/06/12 07:23:06;;;;;;;;;;;;;;;29.41;34.22;100181.62;4346168;32;19979;-87
2022/06/12 07:25:43;;;;;;;;;;;;;;;30.03;30.70;100174.50;4345282;32;19994;-87
2022/06/12 07:28:10;;;;;;;;;;;;;;;29.62;33.68;100175.09;4367947;32;20082;-88
2022/06/12 07:30:38;;;;;;;;;;;;;;;30.34;30.35;100173.56;4355154;32;20553;-88
2022/06/12 07:33:05;;;;;;;;;;;;;;;29.82;32.35;100181.09;4355781;32;20059;-88
2022/06/12 07:35:33;;;;;;;;;;;;;;;30.28;30.17;100162.34;4366933;32;20038;-88
2022/06/12 07:38:00;;;;;;;;;;;;;;;29.82;34.20;100162.41;4355247;32;20858;-88
2022/06/12 07:40:29;;;;;;;;;;;;;;;29.75;32.66;100167.25;4365499;32;19997;-86
2022/06/12 07:42:55;;;;;;;;;;;;;;;30.16;31.12;100160.41;4366738;32;20057;-86
2022/06/12 07:45:22;;;;;;;;;;;;;;;30.10;31.53;100170.50;4351320;32;20005;-87
2022/06/12 07:47:49;;;;;;;;;;;;;;;30.96;28.66;100169.78;4346030;32;20058;-86
2022/06/12 07:50:16;;;;;;;;;;;;;;;30.43;30.60;100172.13;4362452;32;20312;-87
2022/06/12 07:52:44;;;;;;;;;;;;;;;30.44;30.62;100162.28;4339455;32;19987;-86
2022/06/12 07:55:11;;;;;;;;;;;;;;;30.47;30.48;100165.66;4346561;32;20884;-86
2022/06/12 07:57:38;;;;;;;;;;;;;;;30.48;32.59;100164.69;4368024;32;20010;-87
2022/06/12 08:00:06;;;;;;;;;;;;;;;30.46;30.97;100169.25;4370297;32;19987;-87
2022/06/12 08:02:37;;;;;;;;;;;;;;;30.79;31.49;100162.78;4340612;32;20349;-87
2022/06/12 08:05:05;;;;;;;;;;;;;;;30.86;31.05;100166.81;4340738;32;19984;-86
2022/06/12 08:07:32;;;;;;;;;;;;;;;30.72;32.61;100170.31;4370598;32;20082;-86
2022/06/12 08:09:58;;;;;;;;;;;;;;;30.95;31.19;100166.25;4348403;32;20054;-87
2022/06/12 08:12:25;;;;;;;;;;;;;;;31.57;29.28;100171.19;4340614;32;20306;-87
2022/06/12 08:14:54;;;;;;;;;;;;;;;31.48;29.00;100169.09;4343224;32;20341;-87
2022/06/12 08:17:21;;;;;;;;;;;;;;;31.15;31.04;100166.78;4345530;32;20000;-89
2022/06/12 08:22:33;;;;;;;;;;;;;;;31.12;30.20;100161.63;4348242;32;20000;-88
2022/06/12 08:25:00;;;;;;;;;;;;;;;30.89;32.40;100157.72;4342407;32;20438;-87
2022/06/12 08:27:27;;;;;;;;;;;;;;;31.15;31.65;100158.75;4347148;32;20022;-86
2022/06/12 08:29:54;;;;;;;;;;;;;;;30.79;31.91;100162.78;4340253;33;20372;-87
2022/06/12 08:32:21;;;;;;;;;;;;;;;30.88;31.23;100148.84;4342420;32;19987;-86
2022/06/12 08:34:55;;;;;;;;;;;;;;;31.18;31.26;100159.41;4345820;32;19971;-86
2022/06/12 08:37:23;;;;;;;;;;;;;;;31.39;30.29;100151.81;4340112;32;20313;-86
2022/06/12 08:39:50;;;;;;;;;;;;;;;30.93;32.56;100160.13;4343509;32;19975;-86
2022/06/12 08:42:28;;;;;;;;;;;;;;;31.07;31.40;100155.72;4348833;32;19985;-87
2022/06/12 08:44:59;;;;;;;;;;;;;;;31.17;32.56;100157.69;4370273;32;19991;-87
2022/06/12 08:47:33;;;;;;;;;;;;;;;31.28;33.89;100167.72;4354451;32;20005;-88
2022/06/12 08:50:06;;;;;;;;;;;;;;;31.23;30.17;100157.28;4349698;32;20054;-87
2022/06/12 08:52:33;;;;;;;;;;;;;;;31.16;33.91;100161.31;4343406;32;19979;-88
2022/06/12 08:54:59;;;;;;;;;;;;;;;31.68;29.89;100157.06;4346347;32;20003;-88
2022/06/12 08:57:29;;;;;;;;;;;;;;;31.42;30.11;100156.97;4352830;32;20001;-86
2022/06/12 09:00:16;;;;;;;;;;;;;;;31.46;31.36;100157.62;4376762;32;19971;-86
2022/06/12 09:02:43;;;;;;;;;;;;;;;31.12;33.69;100158.97;4339517;32;20007;-87
2022/06/12 09:05:12;;;;;;;;;;;;;;;31.29;30.60;100166.75;4341664;33;19987;-87
2022/06/12 09:07:49;;;;;;;;;;;;;;;30.97;32.04;100156.28;4366693;32;19979;-87
2022/06/12 09:10:20;;;;;;;;;;;;;;;31.56;31.45;100158.75;4371542;32;20322;-87
2022/06/12 09:12:51;;;;;;;;;;;;;;;32.25;27.97;100148.75;4354240;32;19975;-86
2022/06/12 09:15:41;;;;;;;;;;;;;;;31.44;30.89;100155.06;4360772;32;19994;-86
2022/06/12 09:18:23;;;;;;;;;;;;;;;31.36;30.40;100157.38;4359433;32;20066;-86
2022/06/12 09:20:58;;;;;;;;;;;;;;;31.71;29.01;100156.88;4374829;32;19979;-86
2022/06/12 09:23:27;;;;;;;;;;;;;;;31.42;32.74;100146.28;4367777;32;19979;-86
2022/06/12 09:26:13;;;;;;;;;;;;;;;31.73;29.76;100154.97;4368357;32;20411;-90
2022/06/12 09:28:46;;;;;;;;;;;;;;;31.88;29.38;100156.63;4377690;32;19979;-90
2022/06/12 09:31:24;;;;;;;;;;;;;;;31.57;31.12;100148.91;4363785;32;19975;-93
2022/06/12 09:34:10;;;;;;;;;;;;;;;31.78;29.92;100151.97;4375810;32;19998;-92
2022/06/12 09:36:51;;;;;;;;;;;;;;;31.73;30.75;100149.59;4352430;32;20027;-93
2022/06/12 09:39:27;;;;;;;;;;;;;;;31.98;29.97;100148.00;4375345;32;20070;-92
2022/06/12 09:42:13;;;;;;;;;;;;;;;32.30;28.42;100145.78;4355369;32;19996;-91
2022/06/12 09:44:52;;;;;;;;;;;;;;;31.86;31.57;100138.94;4323186;32;20009;-90
2022/06/12 09:47:32;;;;;;;;;;;;;;;32.27;29.25;100138.78;4373862;32;20042;-91
2022/06/12 09:50:23;;;;;;;;;;;;;;;31.90;29.47;100135.09;4375984;32;20050;-91
2022/06/12 09:52:50;;;;;;;;;;;;;;;31.94;29.17;100137.47;4366050;32;19976;-92
2022/06/12 09:55:19;;;;;;;;;;;;;;;31.70;31.84;100123.03;4353383;32;19992;-91
2022/06/12 09:58:06;;;;;;;;;;;;;;;31.66;33.28;100133.09;4366071;32;20006;-93
2022/06/12 10:00:37;;;;;;;;;;;;;;;32.44;28.17;100128.75;4366806;32;20367;-91
2022/06/12 10:03:07;;;;;;;;;;;;;;;31.50;31.50;100119.88;4368934;32;19997;-91
2022/06/12 10:05:45;;;;;;;;;;;;;;;31.37;31.54;100121.66;4351529;32;19998;-95
2022/06/12 10:08:21;;;;;;;;;;;;;;;30.97;33.49;100118.87;4372919;32;19983;-88
2022/06/12 10:10:53;;;;;;;;;;;;;;;31.27;34.23;100115.13;4379715;32;20033;-89
2022/06/12 10:13:22;;;;;;;;;;;;;;;31.62;33.54;100109.31;4367207;32;20030;-88
2022/06/12 10:15:53;;;;;;;;;;;;;;;31.61;30.96;100112.94;4357619;32;20002;-90
2022/06/12 10:18:27;;;;;;;;;;;;;;;31.43;33.22;100113.22;4374133;32;20245;-89
2022/06/12 10:21:00;;;;;;;;;;;;;;;31.78;31.11;100114.47;4365933;32;19988;-88
2022/06/12 10:23:27;;;;;;;;;;;;;;;32.05;29.62;100106.44;4374501;32;19990;-91
2022/06/12 10:25:56;;;;;;;;;;;;;;;32.30;28.72;100101.06;4351301;32;20385;-90
2022/06/12 10:28:28;;;;;;;;;;;;;;;32.14;28.28;100095.94;4349944;32;20004;-89
2022/06/12 10:31:08;;;;;;;;;;;;;;;32.31;29.79;100093.88;4357606;32;20053;-94
2022/06/12 10:33:41;;;;;;;;;;;;;;;31.75;34.10;100099.50;4353807;32;20058;-93
2022/06/12 10:36:21;;;;;;;;;;;;;;;32.27;29.27;100095.06;4341520;32;19987;-92
2022/06/12 10:38:49;;;;;;;;;;;;;;;32.27;29.37;100090.56;4365418;32;20423;-92
2022/06/12 10:41:22;;;;;;;;;;;;;;;32.66;27.74;100086.03;4345132;32;19987;-92
2022/06/12 10:43:49;;;;;;;;;;;;;;;32.30;31.56;100084.16;4371402;32;20054;-91
2022/06/12 10:46:17;;;;;;;;;;;;;;;32.34;30.36;100078.44;4349577;32;20372;-92
2022/06/12 10:48:55;;;;;;;;;;;;;;;32.77;27.43;100083.47;4345853;32;20002;-91
2022/06/12 10:51:24;;;;;;;;;;;;;;;32.74;29.94;100089.03;4356713;32;19987;-90
2022/06/12 10:53:58;;;;;;;;;;;;;;;32.31;31.30;100080.50;4356709;32;19965;-93
2022/06/12 10:56:40;;;;;;;;;;;;;;;32.61;28.90;100082.81;4364540;32;20011;-91
2022/06/12 10:59:18;;;;;;;;;;;;;;;32.79;28.19;100081.50;4364524;32;20003;-94
2022/06/12 11:02:28;;;;;;;;;;;;;;;32.71;28.52;100073.19;4363494;32;20013;-92
2022/06/12 11:04:59;;;;;;;;;;;;;;;32.09;28.00;100081.13;4345703;32;20013;-95
2022/06/12 11:07:45;;;;;;;;;;;;;;;31.46;31.75;100078.25;4375950;32;20002;-94
2022/06/12 11:10:28;;;;;;;;;;;;;;;31.94;30.45;100078.56;4351025;32;19983;-93
2022/06/12 11:13:18;;;;;;;;;;;;;;;32.40;28.53;100072.66;4357942;32;20009;-94
2022/06/12 11:15:48;;;;;;;;;;;;;;;32.61;28.42;100066.75;4359811;32;20026;-94
2022/06/12 11:18:18;;;;;;;;;;;;;;;32.59;28.78;100069.53;4350160;32;19987;-94
2022/06/12 11:20:48;;;;;;;;;;;;;;;31.79;30.82;100068.88;4361846;32;20030;-95
2022/06/12 11:23:34;;;;;;;;;;;;;;;32.06;30.21;100076.00;4362996;32;19975;-95
2022/06/12 11:26:26;;;;;;;;;;;;;;;31.69;30.93;100067.81;4342401;32;20002;-84
2022/06/12 11:29:12;;;;;;;;;;;;;;;32.15;30.06;100067.31;4355468;32;19976;-86
2022/06/12 11:31:42;;;;;;;;;;;;;;;31.84;32.59;100061.37;4347781;32;20070;-89
2022/06/12 11:34:29;;;;;;;;;;;;;;;32.26;31.97;100062.06;4348735;32;20541;-95
2022/06/12 11:36:56;;;;;;;;;;;;;;;32.51;28.69;100068.38;4361986;32;19983;-94
2022/06/12 11:39:27;;;;;;;;;;;;;;;31.82;31.17;100063.31;4371466;32;20030;-86
2022/06/12 11:42:07;;;;;;;;;;;;;;;32.02;29.95;100066.47;4366222;32;20013;-89
2022/06/12 11:44:39;;;;;;;;;;;;;;;32.48;29.47;100055.19;4369077;32;20003;-87
2022/06/12 11:47:38;;;;;;;;;;;;;;;31.16;33.66;100058.84;4330709;32;805432;-88
2022/06/12 11:50:08;;;;;;;;;;;;;;;31.84;31.44;100055.16;4327550;32;20330;-87
2022/06/12 11:52:46;;;;;;;;;;;;;;;31.40;32.43;100062.59;4334487;32;20479;-84
2022/06/12 11:55:16;;;;;;;;;;;;;;;30.93;32.10;100053.19;4343128;32;20026;-83
2022/06/12 11:57:49;;;;;;;;;;;;;;;31.34;30.48;100056.81;4348967;32;19971;-84
2022/06/12 12:00:16;;;;;;;;;;;;;;;31.56;30.43;100056.19;4350579;32;20318;-85
2022/06/12 12:02:47;;;;;;;;;;;;;;;31.71;32.74;100055.16;4367530;32;19987;-84
2022/06/12 12:05:14;;;;;;;;;;;;;;;31.90;30.54;100055.62;4345569;32;20018;-87
2022/06/12 12:07:44;;;;;;;;;;;;;;;32.13;29.78;100048.69;4344016;32;20309;-85
2022/06/12 12:10:26;;;;;;;;;;;;;;;32.01;31.59;100044.19;4351251;32;19984;-83
2022/06/12 12:12:55;;;;;;;;;;;;;;;32.02;31.77;100031.66;4346569;32;19992;-82
2022/06/12 12:15:23;;;;;;;;;;;;;;;32.27;30.45;100026.28;4362858;32;19987;-86
2022/06/12 12:17:50;;;;;;;;;;;;;;;32.31;30.18;100030.44;4376786;32;19984;-86
2022/06/12 12:20:28;;;;;;;;;;;;;;;32.01;31.06;100021.91;4369788;32;20026;-87
2022/06/12 12:22:55;;;;;;;;;;;;;;;32.27;29.98;100026.28;4370404;32;20038;-87
2022/06/12 12:25:37;;;;;;;;;;;;;;;32.55;29.78;100014.47;4347849;32;21061;-88
2022/06/12 12:28:11;;;;;;;;;;;;;;;32.53;29.48;100020.88;4349985;32;19983;-87
2022/06/12 12:30:39;;;;;;;;;;;;;;;32.78;28.75;100015.44;4372206;32;19999;-86
2022/06/12 12:33:09;;;;;;;;;;;;;;;32.87;28.07;100009.41;4343765;32;20070;-87
2022/06/12 12:41:11;;;;;;;;;;;;;;;32.17;29.39;100003.78;4361662;32;19997;-87
2022/06/12 12:43:54;;;;;;;;;;;;;;;32.26;30.37;100008.50;4352165;32;19983;-87
2022/06/12 12:46:22;;;;;;;;;;;;;;;32.04;30.31;99997.59;4349315;32;20325;-86
2022/06/12 12:48:53;;;;;;;;;;;;;;;32.59;29.46;100004.38;4353336;32;20282;-88
2022/06/12 12:51:24;;;;;;;;;;;;;;;32.89;27.36;99991.34;4351120;32;20360;-89
2022/06/12 12:53:54;;;;;;;;;;;;;;;32.89;28.40;99990.50;4344741;32;19987;-89
2022/06/12 12:56:29;;;;;;;;;;;;;;;32.83;27.38;99991.84;4370226;32;19994;-87
2022/06/12 12:59:01;;;;;;;;;;;;;;;32.92;28.11;99984.06;4363340;32;19983;-88
2022/06/12 13:01:28;;;;;;;;;;;;;;;33.09;27.77;99981.03;4359600;32;19994;-88
2022/06/12 13:03:58;;;;;;;;;;;;;;;32.89;29.04;99986.00;4351083;32;19998;-90
2022/06/12 13:06:34;;;;;;;;;;;;;;;32.94;26.60;99987.50;4372189;32;19983;-90
2022/06/12 13:09:01;;;;;;;;;;;;;;;32.76;26.50;99985.19;4353083;32;19989;-88
2022/06/12 13:11:28;;;;;;;;;;;;;;;32.60;28.68;99988.16;4352580;32;20258;-87